Time;durP1;ratioP1;P1;durP2;ratioP2;P2;SDS_P1;SDS_P2;PMS_P1;PMS_P2;Temp;Humidity;BMP_temperature;BMP_pressure;BME280_temperature;BME280_humidity;BME280_pressure;Samples;Min_cycle;Max_cycle;Signal;HPM_P1;HPM_P2
2022/02/22 00:02:09;;;;;;;10.13;1.40;;;7.40;99.90;;;;;;4971267;28;20079;-77
2022/02/22 00:04:36;;;;;;;5.32;1.83;;;6.70;99.90;;;;;;4954136;28;20034;-78
2022/02/22 00:07:06;;;;;;;7.22;1.00;;;6.90;99.90;;;;;;4971376;28;20034;-77
2022/02/22 00:09:33;;;;;;;8.70;1.67;;;6.80;99.90;;;;;;4970277;28;20046;-77
2022/02/22 00:11:58;;;;;;;5.25;1.25;;;6.80;99.90;;;;;;4960158;28;20032;-78
2022/02/22 00:14:24;;;;;;;7.07;1.35;;;6.80;99.90;;;;;;4951854;29;20504;-78
2022/02/22 00:16:55;;;;;;;10.95;1.73;;;6.80;99.90;;;;;;4967821;23;20017;-78
2022/02/22 00:19:27;;;;;;;9.02;1.98;;;6.90;99.90;;;;;;4979142;28;20046;-80
2022/02/22 00:21:54;;;;;;;8.32;1.85;;;6.90;99.90;;;;;;4974747;28;20054;-81
2022/02/22 00:24:20;;;;;;;6.75;1.63;;;6.80;99.90;;;;;;4990529;28;20026;-80
2022/02/22 00:26:47;;;;;;;5.25;1.35;;;6.80;99.90;;;;;;4994519;28;20073;-78
2022/02/22 00:29:13;;;;;;;7.82;1.52;;;6.80;99.90;;;;;;4974164;28;20091;-81
2022/02/22 00:31:39;;;;;;;9.40;1.40;;;6.70;99.90;;;;;;4992857;28;20030;-80
2022/02/22 00:34:06;;;;;;;8.68;1.27;;;6.70;99.90;;;;;;5010579;28;20045;-78
2022/02/22 00:36:33;;;;;;;6.25;1.40;;;6.90;99.90;;;;;;4977565;28;20030;-78
2022/02/22 00:38:59;;;;;;;8.73;1.65;;;6.60;99.90;;;;;;4993319;28;20034;-81
2022/02/22 00:41:25;;;;;;;5.60;1.10;;;6.70;99.90;;;;;;4993194;28;20117;-80
2022/02/22 00:43:51;;;;;;;8.65;1.55;;;6.60;99.90;;;;;;4993838;28;20076;-78
2022/02/22 00:46:16;;;;;;;10.07;1.55;;;6.50;99.90;;;;;;5011024;28;20733;-80
2022/02/22 00:48:42;;;;;;;7.05;1.58;;;6.90;99.90;;;;;;5010343;28;20053;-80
2022/02/22 00:51:08;;;;;;;4.13;1.25;;;6.40;99.90;;;;;;4993748;28;20022;-81
2022/02/22 00:53:33;;;;;;;7.18;1.13;;;6.40;99.90;;;;;;4993358;28;20033;-78
2022/02/22 00:55:59;;;;;;;6.72;1.35;;;7.10;99.90;;;;;;4961262;28;20498;-78
2022/02/22 00:58:24;;;;;;;14.50;1.80;;;7.10;99.90;;;;;;4992749;28;20561;-78
2022/02/22 01:00:50;;;;;;;10.88;2.85;;;6.20;99.90;;;;;;4992951;28;20030;-78
2022/02/22 01:03:16;;;;;;;5.35;1.35;;;6.10;99.90;;;;;;5022285;28;20509;-79
2022/02/22 01:05:42;;;;;;;6.82;1.20;;;6.20;99.90;;;;;;4989150;28;20516;-79
2022/02/22 01:08:07;;;;;;;8.30;1.75;;;6.50;99.90;;;;;;4986100;28;20026;-79
2022/02/22 01:10:33;;;;;;;9.93;2.25;;;6.20;99.90;;;;;;4987786;28;20022;-78
2022/02/22 01:12:59;;;;;;;4.78;1.40;;;6.40;99.90;;;;;;4988886;28;20041;-80
2022/02/22 01:15:25;;;;;;;5.63;1.40;;;6.50;99.90;;;;;;5006077;28;20030;-81
2022/02/22 01:17:50;;;;;;;6.75;1.50;;;6.60;99.90;;;;;;5000046;28;20061;-81
2022/02/22 01:20:16;;;;;;;9.02;1.70;;;7.30;99.90;;;;;;5012188;28;20455;-79
2022/02/22 01:22:42;;;;;;;5.43;1.33;;;7.00;99.90;;;;;;5012468;28;20083;-79
2022/02/22 01:25:09;;;;;;;8.57;1.70;;;6.80;99.90;;;;;;4999270;28;21221;-79
2022/02/22 01:27:36;;;;;;;6.18;1.20;;;6.60;99.90;;;;;;4994855;28;20070;-79
2022/02/22 01:30:02;;;;;;;4.45;1.40;;;6.60;99.90;;;;;;5011712;28;20041;-80
2022/02/22 01:32:28;;;;;;;5.55;1.38;;;6.60;99.90;;;;;;4994654;28;20018;-79
2022/02/22 01:34:53;;;;;;;12.07;2.17;;;6.70;99.90;;;;;;4994862;28;20034;-79
2022/02/22 01:37:19;;;;;;;6.00;1.30;;;6.60;99.90;;;;;;4986986;28;20509;-79
2022/02/22 01:39:45;;;;;;;7.07;1.35;;;6.60;99.90;;;;;;4966911;28;20058;-79
2022/02/22 01:42:11;;;;;;;5.70;1.60;;;6.70;99.90;;;;;;5011721;28;20421;-79
2022/02/22 01:44:37;;;;;;;12.50;1.48;;;6.70;99.90;;;;;;5013975;28;20041;-79
2022/02/22 01:47:04;;;;;;;5.80;1.13;;;6.80;99.90;;;;;;4981268;28;20030;-79
2022/02/22 01:49:30;;;;;;;9.35;1.40;;;6.70;99.90;;;;;;5014462;28;20108;-79
2022/02/22 01:51:57;;;;;;;8.52;1.48;;;6.80;99.90;;;;;;4998356;28;20022;-79
2022/02/22 01:54:25;;;;;;;8.10;1.30;;;8.00;99.90;;;;;;5015316;28;20029;-79
2022/02/22 01:56:52;;;;;;;9.57;1.60;;;8.30;99.90;;;;;;4998076;28;20042;-79
2022/02/22 01:59:19;;;;;;;5.15;1.20;;;8.60;99.90;;;;;;5014132;28;20501;-78
2022/02/22 02:01:46;;;;;;;13.50;1.85;;;6.70;99.90;;;;;;5015797;28;20382;-79
2022/02/22 02:04:11;;;;;;;9.75;1.33;;;6.60;99.90;;;;;;5015500;28;20036;-79
2022/02/22 02:06:38;;;;;;;8.18;1.88;;;7.70;99.90;;;;;;4994181;28;20038;-79
2022/02/22 02:09:05;;;;;;;6.32;0.93;;;6.60;99.90;;;;;;5000981;28;20098;-78
2022/02/22 02:11:53;;;;;;;6.88;1.35;;;6.50;99.90;;;;;;4984013;28;20029;-78
2022/02/22 02:14:19;;;;;;;7.57;1.85;;;6.70;99.90;;;;;;4997782;28;20026;-78
2022/02/22 02:16:45;;;;;;;5.85;1.73;;;6.80;99.90;;;;;;5001389;28;20037;-78
2022/02/22 02:19:13;;;;;;;8.13;1.30;;;6.90;99.90;;;;;;5019044;28;20117;-78
2022/02/22 02:21:40;;;;;;;5.60;1.80;;;6.60;99.90;;;;;;4982810;28;20030;-79
2022/02/22 02:24:10;;;;;;;6.43;1.35;;;7.00;99.90;;;;;;4997002;28;20186;-79
2022/02/22 02:26:37;;;;;;;8.27;1.65;;;6.60;99.90;;;;;;5014142;28;20033;-79
2022/02/22 02:29:04;;;;;;;5.22;1.58;;;7.00;99.90;;;;;;4995388;28;20033;-78
2022/02/22 02:31:30;;;;;;;9.43;1.70;;;6.80;99.90;;;;;;5013995;28;20022;-79
2022/02/22 02:33:56;;;;;;;4.63;1.92;;;6.40;99.90;;;;;;4997070;28;20105;-81
2022/02/22 02:36:21;;;;;;;8.05;1.42;;;7.50;99.90;;;;;;4979704;28;20034;-79
2022/02/22 02:38:47;;;;;;;7.57;1.50;;;6.40;99.90;;;;;;4980106;28;20022;-79
2022/02/22 02:41:12;;;;;;;7.10;1.33;;;8.00;99.90;;;;;;5014968;28;20038;-78
2022/02/22 02:43:38;;;;;;;5.18;1.13;;;7.30;99.90;;;;;;4982524;28;20087;-79
2022/02/22 02:46:03;;;;;;;8.60;1.33;;;7.00;99.90;;;;;;4980294;28;20466;-79
2022/02/22 02:48:29;;;;;;;7.88;1.48;;;6.30;99.90;;;;;;4979533;28;20053;-79
2022/02/22 02:50:55;;;;;;;6.95;1.40;;;6.30;99.90;;;;;;4975382;28;20056;-79
2022/02/22 02:53:20;;;;;;;5.20;0.80;;;6.60;99.90;;;;;;4994416;28;20058;-78
2022/02/22 02:55:46;;;;;;;7.45;1.30;;;6.20;99.90;;;;;;4993839;28;20030;-79
2022/02/22 02:58:11;;;;;;;6.25;1.27;;;6.10;99.90;;;;;;4994595;28;20521;-81
2022/02/22 03:00:37;;;;;;;4.82;0.77;;;6.00;99.90;;;;;;5009730;28;20029;-79
2022/02/22 03:03:03;;;;;;;5.15;1.30;;;6.40;99.90;;;;;;4976594;28;20038;-79
2022/02/22 03:05:28;;;;;;;8.10;2.17;;;6.30;99.90;;;;;;4960203;28;20180;-79
2022/02/22 03:07:58;;;;;;;6.82;1.70;;;6.10;99.90;;;;;;4995039;28;20029;-78
2022/02/22 03:10:25;;;;;;;8.55;1.65;;;6.10;99.90;;;;;;5013056;28;20541;-79
2022/02/22 03:12:51;;;;;;;7.53;1.38;;;6.00;99.90;;;;;;4995846;28;20030;-79
2022/02/22 03:15:16;;;;;;;7.78;1.50;;;6.00;99.90;;;;;;5013495;28;20391;-79
2022/02/22 03:17:42;;;;;;;5.82;1.08;;;5.70;99.90;;;;;;4995552;28;20034;-79
2022/02/22 03:20:08;;;;;;;5.20;1.27;;;5.70;99.90;;;;;;4995766;28;20130;-79
2022/02/22 03:22:34;;;;;;;5.10;1.25;;;5.80;99.90;;;;;;4995996;28;20033;-79
2022/02/22 03:25:00;;;;;;;11.10;1.58;;;5.70;99.90;;;;;;4979194;28;20421;-79
2022/02/22 03:27:25;;;;;;;5.72;1.38;;;5.60;99.90;;;;;;4995182;28;20075;-79
2022/02/22 03:29:51;;;;;;;5.25;1.10;;;5.60;99.90;;;;;;4978621;28;20046;-79
2022/02/22 03:32:16;;;;;;;6.50;1.25;;;5.80;99.90;;;;;;5012852;28;20075;-79
2022/02/22 03:34:42;;;;;;;11.15;1.88;;;5.70;99.90;;;;;;4994513;28;20050;-79
2022/02/22 03:37:10;;;;;;;6.50;1.20;;;5.80;99.90;;;;;;4978732;28;20054;-79
2022/02/22 03:39:35;;;;;;;7.78;1.40;;;5.80;99.90;;;;;;4994189;28;20052;-79
2022/02/22 03:42:01;;;;;;;5.55;1.23;;;5.80;99.90;;;;;;4994777;28;20094;-79
2022/02/22 03:44:26;;;;;;;9.55;3.30;;;5.90;99.90;;;;;;4994999;28;20038;-79
2022/02/22 03:46:52;;;;;;;5.38;1.10;;;5.90;99.90;;;;;;4994895;28;20116;-79
2022/02/22 03:49:18;;;;;;;6.10;1.80;;;6.30;99.90;;;;;;5011627;28;20113;-78
2022/02/22 03:51:43;;;;;;;8.95;1.40;;;5.80;99.90;;;;;;4995021;28;20041;-79
2022/02/22 03:54:09;;;;;;;4.65;1.27;;;5.90;99.90;;;;;;5012303;28;20026;-79
2022/02/22 03:56:35;;;;;;;3.33;1.00;;;5.90;99.90;;;;;;5012556;28;20091;-79
2022/02/22 03:59:00;;;;;;;5.85;1.50;;;5.70;99.90;;;;;;5012290;28;20034;-78
2022/02/22 04:01:26;;;;;;;4.90;1.88;;;5.80;99.90;;;;;;4962830;28;20413;-79
2022/02/22 04:03:51;;;;;;;5.10;1.30;;;5.70;99.90;;;;;;4978186;28;20030;-78
2022/02/22 04:06:17;;;;;;;6.80;1.67;;;5.90;99.90;;;;;;5009997;28;20079;-79
2022/02/22 04:08:42;;;;;;;6.50;1.65;;;5.70;99.90;;;;;;4974695;28;20127;-79
2022/02/22 04:11:08;;;;;;;4.43;1.33;;;5.70;99.90;;;;;;4978462;28;20113;-79
2022/02/22 04:13:34;;;;;;;8.30;1.50;;;5.70;99.90;;;;;;4978530;28;20030;-78
2022/02/22 04:15:59;;;;;;;4.97;1.42;;;5.80;99.90;;;;;;4994868;28;20026;-79
2022/02/22 04:18:25;;;;;;;5.63;1.50;;;6.60;99.90;;;;;;4993058;28;20041;-79
2022/02/22 04:20:51;;;;;;;7.47;1.30;;;6.00;99.90;;;;;;4994029;28;20048;-79
2022/02/22 04:23:16;;;;;;;7.95;2.13;;;5.80;99.90;;;;;;5011686;28;20516;-79
2022/02/22 04:25:42;;;;;;;7.85;1.10;;;6.00;99.90;;;;;;4978288;28;20037;-79
2022/02/22 04:28:08;;;;;;;5.22;1.23;;;5.90;99.90;;;;;;4995133;28;20102;-78
2022/02/22 04:30:33;;;;;;;3.63;2.45;;;5.60;99.90;;;;;;4998311;28;20433;-78
2022/02/22 04:32:59;;;;;;;2.97;1.10;;;5.70;99.90;;;;;;5016744;28;20109;-79
2022/02/22 04:35:25;;;;;;;6.80;1.80;;;5.70;99.90;;;;;;4962112;28;20098;-79
2022/02/22 04:37:50;;;;;;;7.35;1.20;;;6.60;99.90;;;;;;5012065;28;20382;-78
2022/02/22 04:40:16;;;;;;;6.63;1.65;;;5.50;99.90;;;;;;5010996;28;20044;-78
2022/02/22 04:42:42;;;;;;;7.57;1.75;;;5.70;99.90;;;;;;5012017;28;20453;-79
2022/02/22 04:45:08;;;;;;;6.63;1.17;;;5.60;99.90;;;;;;5011211;28;20026;-79
2022/02/22 04:47:34;;;;;;;6.80;1.85;;;5.50;99.90;;;;;;5010646;28;20052;-79
2022/02/22 04:49:59;;;;;;;8.10;1.58;;;5.50;99.90;;;;;;4977040;28;20038;-79
2022/02/22 04:52:25;;;;;;;9.15;1.58;;;6.30;99.90;;;;;;4977705;28;20121;-79
2022/02/22 04:54:50;;;;;;;13.85;1.90;;;5.40;99.90;;;;;;4961840;28;20030;-79
2022/02/22 04:57:16;;;;;;;9.23;1.30;;;5.30;99.90;;;;;;5012452;28;20033;-78
2022/02/22 04:59:42;;;;;;;6.95;1.55;;;5.30;99.90;;;;;;5011971;28;20034;-79
2022/02/22 05:02:07;;;;;;;5.95;1.25;;;5.40;99.90;;;;;;5014261;28;20560;-78
2022/02/22 05:04:33;;;;;;;8.35;1.70;;;5.00;99.90;;;;;;4999015;28;20042;-79
2022/02/22 05:06:58;;;;;;;8.30;1.75;;;5.00;99.90;;;;;;4971649;28;20383;-78
2022/02/22 05:09:24;;;;;;;9.13;1.40;;;5.00;99.90;;;;;;4988962;28;20018;-78
2022/02/22 05:11:50;;;;;;;7.45;1.88;;;5.10;99.90;;;;;;4998246;28;20083;-78
2022/02/22 05:14:15;;;;;;;5.13;1.60;;;5.10;99.90;;;;;;5016527;28;20034;-78
2022/02/22 05:16:41;;;;;;;7.95;1.92;;;5.00;99.90;;;;;;5015208;28;20117;-78
2022/02/22 05:19:07;;;;;;;6.15;1.40;;;5.10;99.90;;;;;;4976944;28;20109;-78
2022/02/22 05:21:34;;;;;;;7.90;1.70;;;4.70;99.90;;;;;;4978481;28;20094;-79
2022/02/22 05:24:00;;;;;;;8.40;2.47;;;5.40;99.90;;;;;;4978977;28;20027;-78
2022/02/22 05:26:26;;;;;;;7.28;1.80;;;5.00;99.90;;;;;;4978443;28;20027;-78
2022/02/22 05:28:51;;;;;;;3.35;1.40;;;5.00;99.90;;;;;;4980377;28;20053;-79
2022/02/22 05:31:18;;;;;;;9.52;2.15;;;4.90;99.90;;;;;;4997799;28;20475;-79
2022/02/22 05:33:44;;;;;;;8.75;1.80;;;5.60;99.90;;;;;;5015711;28;20044;-78
2022/02/22 05:36:10;;;;;;;5.90;1.73;;;5.20;99.90;;;;;;5014947;28;20057;-78
2022/02/22 05:38:36;;;;;;;7.38;2.13;;;5.10;99.90;;;;;;4996871;28;20042;-78
2022/02/22 05:41:02;;;;;;;8.13;1.70;;;5.20;99.90;;;;;;4997974;28;20026;-78
2022/02/22 05:43:28;;;;;;;7.28;1.77;;;4.90;99.90;;;;;;5015993;28;20030;-78
2022/02/22 05:45:55;;;;;;;7.15;1.70;;;5.00;99.90;;;;;;4981560;28;20038;-78
2022/02/22 05:48:21;;;;;;;6.65;1.65;;;5.70;99.90;;;;;;5015898;28;20078;-78
2022/02/22 05:50:46;;;;;;;7.00;2.72;;;4.70;99.90;;;;;;5016939;28;20030;-79
2022/02/22 05:53:12;;;;;;;15.15;3.08;;;5.80;99.90;;;;;;5010185;28;20084;-78
2022/02/22 05:55:38;;;;;;;10.30;1.98;;;4.80;99.90;;;;;;4980634;28;20030;-78
2022/02/22 05:58:04;;;;;;;9.48;1.80;;;4.90;99.90;;;;;;4966244;28;20388;-78
2022/02/22 06:00:30;;;;;;;7.22;1.92;;;4.80;99.90;;;;;;4999303;28;20075;-78
2022/02/22 06:02:56;;;;;;;16.70;2.33;;;5.20;99.90;;;;;;5000699;28;20031;-78
2022/02/22 06:05:21;;;;;;;7.57;3.13;;;5.90;99.90;;;;;;5019668;28;20018;-78
2022/02/22 06:07:47;;;;;;;11.73;2.50;;;4.80;99.90;;;;;;5002139;28;20037;-78
2022/02/22 06:10:14;;;;;;;6.85;2.00;;;5.60;99.90;;;;;;4975109;28;20027;-77
2022/02/22 06:12:40;;;;;;;16.25;2.50;;;5.00;99.90;;;;;;4994819;28;20096;-77
2022/02/22 06:15:07;;;;;;;11.45;2.22;;;6.30;99.90;;;;;;4997809;28;20446;-77
2022/02/22 06:17:40;;;;;;;9.68;1.95;;;5.00;99.90;;;;;;5063868;28;20090;-78
2022/02/22 06:20:08;;;;;;;6.07;2.08;;;5.00;99.90;;;;;;4984984;28;20085;-78
2022/02/22 06:22:34;;;;;;;5.07;1.85;;;5.00;99.90;;;;;;4998800;28;20022;-79
2022/02/22 06:24:59;;;;;;;10.05;2.47;;;5.30;99.90;;;;;;4998538;28;20056;-79
2022/02/22 06:27:25;;;;;;;9.13;2.08;;;5.00;99.90;;;;;;5000512;28;20026;-78
2022/02/22 06:29:51;;;;;;;13.10;2.65;;;5.10;99.90;;;;;;5002026;28;20036;-78
2022/02/22 06:32:16;;;;;;;4.72;2.00;;;5.90;99.90;;;;;;5004814;28;20034;-79
2022/02/22 06:34:42;;;;;;;10.07;2.38;;;5.00;99.90;;;;;;4991122;23;20545;-77
2022/02/22 06:37:08;;;;;;;7.75;2.80;;;5.00;99.90;;;;;;4982270;28;20030;-79
2022/02/22 06:39:35;;;;;;;9.43;2.30;;;5.60;99.90;;;;;;4996549;28;20038;-79
2022/02/22 06:42:01;;;;;;;9.20;2.83;;;4.80;99.90;;;;;;4981831;28;20022;-79
2022/02/22 06:44:26;;;;;;;11.98;2.55;;;5.00;99.90;;;;;;4987874;28;20052;-79
2022/02/22 06:46:52;;;;;;;10.07;2.83;;;4.90;99.90;;;;;;5018033;28;20120;-78
2022/02/22 06:49:17;;;;;;;7.22;2.22;;;4.80;99.90;;;;;;5011462;28;20058;-77
2022/02/22 06:51:43;;;;;;;15.35;3.10;;;4.90;99.90;;;;;;5011514;28;20083;-76
2022/02/22 06:54:09;;;;;;;10.82;3.35;;;4.90;99.90;;;;;;5012118;28;20054;-77
2022/02/22 06:56:34;;;;;;;7.22;2.47;;;4.90;99.90;;;;;;4990751;28;20076;-78
2022/02/22 06:59:00;;;;;;;14.07;2.85;;;5.00;99.90;;;;;;4998568;28;20030;-78
2022/02/22 07:01:25;;;;;;;14.45;2.58;;;5.00;99.90;;;;;;5011393;28;20034;-78
2022/02/22 07:03:51;;;;;;;15.73;3.00;;;5.00;99.90;;;;;;5011362;28;20486;-77
2022/02/22 07:06:16;;;;;;;12.48;3.10;;;5.10;99.90;;;;;;5011160;28;20086;-78
2022/02/22 07:08:42;;;;;;;10.10;2.70;;;5.10;99.90;;;;;;5011077;28;20037;-78
2022/02/22 07:11:08;;;;;;;11.38;2.13;;;5.00;99.90;;;;;;5011574;28;20414;-77
2022/02/22 07:13:33;;;;;;;10.40;2.38;;;5.10;99.90;;;;;;5011902;28;20023;-77
2022/02/22 07:15:59;;;;;;;8.55;2.47;;;5.20;99.90;;;;;;4988602;28;20030;-79
2022/02/22 07:18:25;;;;;;;12.32;2.50;;;5.40;99.90;;;;;;5011479;28;20072;-78
2022/02/22 07:20:51;;;;;;;16.75;2.92;;;5.50;99.90;;;;;;5008780;28;20490;-78
2022/02/22 07:23:16;;;;;;;10.02;2.30;;;5.50;99.90;;;;;;5012830;28;20113;-78
2022/02/22 07:25:42;;;;;;;12.00;2.58;;;5.40;99.90;;;;;;5011087;28;20030;-77
2022/02/22 07:28:08;;;;;;;12.40;2.30;;;5.50;99.90;;;;;;5001707;28;20092;-78
2022/02/22 07:30:33;;;;;;;16.40;2.75;;;5.40;99.90;;;;;;5018450;28;20443;-77
2022/02/22 07:33:01;;;;;;;9.80;2.60;;;5.60;99.90;;;;;;4994818;28;20037;-78
2022/02/22 07:35:29;;;;;;;19.98;4.10;;;6.10;99.90;;;;;;5011557;28;20021;-77
2022/02/22 07:37:55;;;;;;;11.75;2.70;;;6.10;99.90;;;;;;4993704;28;20060;-77
2022/02/22 07:40:22;;;;;;;14.00;3.10;;;5.90;99.90;;;;;;4987985;28;20444;-77
2022/02/22 07:42:47;;;;;;;13.48;2.55;;;6.00;99.90;;;;;;4990260;28;20105;-78
2022/02/22 07:45:14;;;;;;;11.10;2.47;;;5.80;99.90;;;;;;5002283;28;20096;-77
2022/02/22 07:47:41;;;;;;;13.20;2.90;;;6.10;99.90;;;;;;5011144;28;20030;-77
2022/02/22 07:50:08;;;;;;;10.27;2.33;;;6.40;99.90;;;;;;5009428;28;20108;-77
2022/02/22 07:52:34;;;;;;;6.95;2.15;;;6.30;99.90;;;;;;5010469;28;20034;-77
2022/02/22 07:55:00;;;;;;;14.48;2.80;;;6.60;99.90;;;;;;5010600;28;20022;-77
2022/02/22 07:57:26;;;;;;;6.28;1.95;;;6.60;99.90;;;;;;4992796;28;20026;-77
2022/02/22 07:59:51;;;;;;;10.55;1.98;;;6.70;99.90;;;;;;5010393;28;20075;-77
2022/02/22 08:02:17;;;;;;;12.90;2.53;;;7.00;99.90;;;;;;4994142;28;20125;-77
2022/02/22 08:04:43;;;;;;;10.85;2.30;;;6.90;99.90;;;;;;4993080;28;20034;-77
2022/02/22 08:07:10;;;;;;;10.18;2.22;;;6.90;99.90;;;;;;4994293;28;20034;-77
2022/02/22 08:09:37;;;;;;;11.63;2.33;;;7.10;99.90;;;;;;5012451;28;20026;-78
2022/02/22 08:12:03;;;;;;;13.70;2.70;;;6.90;99.90;;;;;;5012687;28;20057;-77
2022/02/22 08:14:29;;;;;;;7.00;1.90;;;7.20;99.90;;;;;;4994215;28;20033;-77
2022/02/22 08:17:00;;;;;;;7.32;2.28;;;7.10;99.90;;;;;;5011015;28;20042;-77
2022/02/22 08:19:29;;;;;;;15.25;2.60;;;7.70;99.90;;;;;;4992971;28;20018;-77
2022/02/22 08:21:56;;;;;;;14.07;3.15;;;7.20;99.90;;;;;;5005850;28;20063;-77
2022/02/22 08:24:22;;;;;;;8.68;2.33;;;7.40;99.90;;;;;;5010142;28;20037;-77
2022/02/22 08:26:49;;;;;;;9.00;2.22;;;7.10;99.90;;;;;;5010620;28;20026;-78
2022/02/22 08:29:14;;;;;;;12.55;2.25;;;7.10;99.90;;;;;;4991197;28;20511;-78
2022/02/22 08:31:40;;;;;;;10.70;2.25;;;7.50;99.90;;;;;;5010762;28;20121;-78
2022/02/22 08:34:06;;;;;;;6.20;1.70;;;7.30;99.90;;;;;;5011209;28;20492;-78
2022/02/22 08:36:31;;;;;;;10.48;2.10;;;8.10;99.90;;;;;;4999060;28;20482;-78
2022/02/22 08:38:58;;;;;;;11.82;2.10;;;7.40;99.90;;;;;;4998082;28;20030;-80
2022/02/22 08:41:26;;;;;;;7.78;2.13;;;7.60;99.90;;;;;;5070256;28;20480;-79
2022/02/22 08:43:52;;;;;;;10.60;1.95;;;8.00;99.90;;;;;;5095968;28;20046;-79
2022/02/22 08:46:19;;;;;;;10.25;1.98;;;7.50;99.90;;;;;;5093162;28;20032;-77
2022/02/22 08:48:44;;;;;;;7.25;1.40;;;7.50;99.90;;;;;;5081419;28;20364;-77
2022/02/22 08:51:10;;;;;;;13.25;2.63;;;7.80;99.90;;;;;;4992498;28;20022;-78
2022/02/22 08:53:36;;;;;;;9.38;2.00;;;7.60;99.90;;;;;;5009424;28;20079;-78
2022/02/22 08:56:03;;;;;;;9.00;1.80;;;7.90;99.90;;;;;;5009397;28;20030;-77
2022/02/22 08:58:28;;;;;;;6.30;2.17;;;7.50;99.90;;;;;;5003219;28;20037;-78
2022/02/22 09:00:54;;;;;;;9.23;1.98;;;7.80;99.90;;;;;;5003039;28;20029;-78
2022/02/22 09:03:20;;;;;;;6.38;1.42;;;7.80;99.90;;;;;;4983464;28;20109;-78
2022/02/22 09:05:45;;;;;;;8.32;1.83;;;7.90;99.90;;;;;;4989529;28;20413;-78
2022/02/22 09:08:11;;;;;;;8.73;2.25;;;8.00;99.90;;;;;;5006757;28;20037;-78
2022/02/22 09:10:38;;;;;;;8.05;1.65;;;8.70;99.90;;;;;;5004688;28;20041;-77
2022/02/22 09:13:05;;;;;;;11.65;2.10;;;8.10;99.90;;;;;;5006082;28;20127;-77
2022/02/22 09:15:31;;;;;;;8.25;1.80;;;8.20;99.90;;;;;;5005329;28;20036;-77
2022/02/22 09:17:58;;;;;;;8.98;2.30;;;8.70;99.90;;;;;;5004907;28;20573;-77
2022/02/22 09:20:24;;;;;;;6.78;1.88;;;8.40;99.90;;;;;;5004916;28;20077;-77
2022/02/22 09:22:49;;;;;;;10.55;2.28;;;8.70;99.90;;;;;;4994447;28;20126;-77
2022/02/22 09:25:18;;;;;;;11.40;1.95;;;9.50;99.90;;;;;;4985417;28;20034;-77
2022/02/22 09:27:44;;;;;;;10.07;2.22;;;9.20;99.90;;;;;;4981991;28;20026;-77
2022/02/22 09:30:13;;;;;;;7.22;1.90;;;9.30;99.90;;;;;;4987396;28;20023;-77
2022/02/22 09:32:39;;;;;;;12.10;2.20;;;8.80;99.90;;;;;;5004760;28;20038;-77
2022/02/22 09:35:06;;;;;;;9.35;2.25;;;8.70;99.90;;;;;;5005297;28;20033;-77
2022/02/22 09:37:31;;;;;;;11.75;2.08;;;8.70;99.90;;;;;;5005027;28;20553;-77
2022/02/22 09:39:57;;;;;;;9.77;2.33;;;8.60;99.90;;;;;;5004137;28;20076;-78
2022/02/22 09:42:25;;;;;;;9.02;2.28;;;8.50;99.90;;;;;;5005574;28;20110;-77
2022/02/22 09:44:52;;;;;;;16.10;2.63;;;8.60;99.90;;;;;;4988563;28;20505;-77
2022/02/22 09:47:18;;;;;;;10.25;2.22;;;8.90;99.90;;;;;;4988131;28;20072;-80
2022/02/22 09:49:44;;;;;;;16.15;3.08;;;8.50;99.90;;;;;;4987678;28;20030;-77
2022/02/22 09:52:10;;;;;;;11.75;2.50;;;9.40;99.90;;;;;;5008444;28;20036;-78
2022/02/22 09:54:36;;;;;;;12.07;3.13;;;8.70;99.90;;;;;;5003008;28;20076;-78
2022/02/22 09:57:02;;;;;;;13.25;2.58;;;10.00;99.90;;;;;;4990179;28;20038;-78
2022/02/22 09:59:28;;;;;;;10.02;2.33;;;10.20;99.90;;;;;;4996822;28;20026;-79
2022/02/22 10:01:56;;;;;;;13.93;2.78;;;9.90;99.90;;;;;;5010805;28;20493;-78
2022/02/22 10:04:23;;;;;;;7.40;1.85;;;9.50;99.90;;;;;;5006869;28;20086;-78
2022/02/22 10:06:50;;;;;;;13.20;2.63;;;9.60;99.90;;;;;;5011540;28;20117;-79
2022/02/22 10:09:17;;;;;;;16.25;3.55;;;9.80;99.90;;;;;;5011715;28;20026;-77
2022/02/22 10:11:51;;;;;;;18.20;3.72;;;9.90;99.90;;;;;;5012182;28;20105;-77
2022/02/22 10:14:24;;;;;;;14.00;2.60;;;;;;;;;;5012097;28;20095;-77
2022/02/22 10:16:50;;;;;;;15.77;2.30;;;10.00;99.90;;;;;;4984714;28;20035;-77
2022/02/22 10:19:17;;;;;;;18.05;3.15;;;10.10;99.90;;;;;;4998589;28;20061;-78
2022/02/22 10:21:47;;;;;;;9.15;2.75;;;9.80;99.90;;;;;;5011555;28;20058;-78
2022/02/22 10:24:15;;;;;;;8.98;2.17;;;10.50;99.90;;;;;;5011869;28;20038;-78
2022/02/22 10:26:41;;;;;;;14.10;3.58;;;9.50;99.90;;;;;;5011774;28;20033;-78
2022/02/22 10:29:23;;;;;;;13.15;3.35;;;9.70;99.90;;;;;;5010519;28;20038;-77
2022/02/22 10:31:48;;;;;;;16.02;3.58;;;10.20;99.90;;;;;;5011798;28;20045;-77
2022/02/22 10:34:15;;;;;;;10.98;2.78;;;9.80;99.90;;;;;;5011537;28;20469;-77
2022/02/22 10:36:42;;;;;;;15.90;3.10;;;9.60;99.90;;;;;;5037675;28;20032;-77
2022/02/22 10:39:12;;;;;;;9.13;2.47;;;9.50;99.90;;;;;;5071929;28;20052;-77
2022/02/22 10:41:44;;;;;;;14.55;2.80;;;9.40;99.90;;;;;;4990380;28;20037;-77
2022/02/22 10:44:12;;;;;;;17.40;3.75;;;9.60;99.90;;;;;;5007739;28;20038;-77
2022/02/22 10:46:45;;;;;;;11.45;3.08;;;9.20;99.90;;;;;;5009549;28;20030;-77
2022/02/22 10:49:15;;;;;;;17.17;3.50;;;9.20;99.90;;;;;;5010728;28;20034;-76
2022/02/22 10:51:44;;;;;;;13.32;2.45;;;9.10;99.90;;;;;;4993954;28;20490;-75
2022/02/22 10:54:18;;;;;;;18.08;3.75;;;8.90;99.90;;;;;;5009984;28;20054;-76
2022/02/22 10:56:44;;;;;;;24.08;3.53;;;9.10;99.90;;;;;;4974631;28;20073;-77
2022/02/22 10:59:10;;;;;;;19.67;3.60;;;9.50;99.90;;;;;;5003202;28;20030;-76
2022/02/22 11:01:36;;;;;;;11.05;2.80;;;9.20;99.90;;;;;;5011476;28;20044;-77
2022/02/22 11:04:03;;;;;;;14.68;2.83;;;9.10;99.90;;;;;;5011390;28;20034;-77
2022/02/22 11:06:28;;;;;;;17.00;3.13;;;9.20;99.90;;;;;;5010411;28;20037;-77
2022/02/22 11:08:55;;;;;;;18.92;4.07;;;9.10;99.90;;;;;;5010436;28;20026;-78
2022/02/22 11:11:27;;;;;;;17.35;2.45;;;9.40;99.90;;;;;;5010741;28;20026;-77
2022/02/22 11:14:03;;;;;;;14.93;2.53;;;9.50;99.90;;;;;;5011097;28;20026;-78
2022/02/22 11:16:42;;;;;;;16.98;3.08;;;9.90;99.90;;;;;;5026716;28;20389;-78
2022/02/22 11:19:33;;;;;;;17.48;2.58;;;9.60;99.90;;;;;;5034824;28;20087;-77
2022/02/22 11:22:10;;;;;;;12.93;2.78;;;9.50;99.90;;;;;;4991450;28;20409;-77
2022/02/22 11:24:44;;;;;;;11.52;1.75;;;9.50;99.90;;;;;;4991345;28;20038;-76
2022/02/22 11:27:09;;;;;;;11.57;2.53;;;9.50;99.90;;;;;;4991384;28;20083;-77
2022/02/22 11:29:35;;;;;;;16.30;3.88;;;9.30;99.90;;;;;;5008284;28;20042;-76
2022/02/22 11:32:12;;;;;;;15.15;2.88;;;9.40;99.90;;;;;;5011020;28;20381;-77
2022/02/22 11:34:40;;;;;;;16.73;2.55;;;9.70;99.90;;;;;;5005324;28;20113;-76
2022/02/22 11:37:12;;;;;;;13.00;3.08;;;9.50;99.90;;;;;;4990943;28;20027;-76
2022/02/22 11:39:52;;;;;;;10.23;2.90;;;9.60;99.90;;;;;;4981584;28;20132;-77
2022/02/22 11:42:19;;;;;;;15.43;2.70;;;10.10;99.90;;;;;;5010789;28;20390;-76
2022/02/22 11:44:45;;;;;;;16.85;2.70;;;9.80;99.90;;;;;;5004305;28;20043;-76
2022/02/22 11:47:15;;;;;;;20.33;2.75;;;11.10;99.90;;;;;;4993695;28;20079;-76
2022/02/22 11:49:48;;;;;;;13.85;2.28;;;10.40;99.90;;;;;;5009591;28;20053;-77
2022/02/22 11:52:14;;;;;;;;;;;10.20;99.90;;;;;;5011005;28;20026;-76
2022/02/22 11:54:40;;;;;;;14.40;2.97;;;10.00;99.90;;;;;;5010232;28;19955;-77
2022/02/22 11:57:08;;;;;;;12.88;2.78;;;9.90;99.90;;;;;;5009701;28;20026;-77
2022/02/22 11:59:50;;;;;;;14.93;2.88;;;10.00;99.90;;;;;;5009185;28;20100;-77
2022/02/22 12:02:31;;;;;;;19.17;3.70;;;10.40;99.90;;;;;;5010238;28;20034;-76
2022/02/22 12:04:57;;;;;;;16.38;3.85;;;9.60;99.90;;;;;;5010193;28;20283;-77
2022/02/22 12:07:29;;;;;;;13.20;2.42;;;10.10;99.90;;;;;;5010120;28;20034;-77
2022/02/22 12:09:56;;;;;;;15.02;2.90;;;9.80;99.90;;;;;;4993907;28;20463;-78
2022/02/22 12:12:23;;;;;;;13.02;2.50;;;9.90;99.90;;;;;;5006462;28;20060;-77
2022/02/22 12:14:54;;;;;;;11.32;3.22;;;10.10;99.90;;;;;;5005638;28;20117;-78
2022/02/22 12:17:22;;;;;;;15.68;2.53;;;10.00;99.90;;;;;;5064318;28;20517;-78
2022/02/22 12:19:52;;;;;;;15.82;2.95;;;10.00;99.90;;;;;;5070830;28;20034;-78
2022/02/22 12:22:20;;;;;;;19.05;4.60;;;10.00;99.90;;;;;;5008920;28;20029;-77
2022/02/22 12:24:45;;;;;;;17.92;3.50;;;10.90;99.90;;;;;;5004616;28;20035;-78
2022/02/22 12:27:13;;;;;;;18.27;3.78;;;10.70;99.90;;;;;;4992623;28;20045;-78
2022/02/22 12:29:40;;;;;;;18.98;3.05;;;9.90;99.90;;;;;;4991840;28;20086;-79
2022/02/22 12:32:06;;;;;;;16.60;3.08;;;10.50;99.90;;;;;;5009721;28;20030;-78
2022/02/22 12:34:32;;;;;;;12.93;2.88;;;9.90;99.90;;;;;;5043121;28;20028;-78
2022/02/22 12:37:01;;;;;;;16.73;3.25;;;10.00;99.90;;;;;;5046403;28;20022;-77
2022/02/22 12:39:34;;;;;;;11.75;2.40;;;10.90;99.90;;;;;;5000839;28;20085;-77
2022/02/22 12:42:01;;;;;;;15.95;3.08;;;10.20;99.90;;;;;;4983666;28;20046;-77
2022/02/22 12:44:29;;;;;;;17.77;3.35;;;10.20;99.90;;;;;;4989753;28;20022;-78
2022/02/22 12:46:57;;;;;;;13.48;2.65;;;11.00;99.90;;;;;;5003491;28;20516;-77
2022/02/22 12:49:24;;;;;;;16.65;2.97;;;10.70;99.90;;;;;;5008805;28;20482;-77
2022/02/22 12:52:01;;;;;;;15.20;4.05;;;11.20;99.90;;;;;;5007722;23;20043;-75